sensor_id;sensor_type;location;lat;lon;timestamp;temperature;humidity
27258;DHT22;62045;49.986;8.672;2022-07-22T00:04:31;29.40;42.70
27258;DHT22;62045;49.986;8.672;2022-07-22T00:09:32;29.30;42.70
27258;DHT22;62045;49.986;8.672;2022-07-22T00:14:33;29.30;42.60
27258;DHT22;62045;49.986;8.672;2022-07-22T00:19:35;29.30;42.70
27258;DHT22;62045;49.986;8.672;2022-07-22T00:24:36;29.30;42.70
27258;DHT22;62045;49.986;8.672;2022-07-22T00:29:37;29.20;42.60
27258;DHT22;62045;49.986;8.672;2022-07-22T00:34:40;29.30;42.70
27258;DHT22;62045;49.986;8.672;2022-07-22T00:39:41;29.30;42.80
27258;DHT22;62045;49.986;8.672;2022-07-22T00:44:42;29.20;42.70
27258;DHT22;62045;49.986;8.672;2022-07-22T00:49:45;29.30;42.70
27258;DHT22;62045;49.986;8.672;2022-07-22T00:54:46;29.20;42.70
27258;DHT22;62045;49.986;8.672;2022-07-22T00:59:47;29.30;42.70
27258;DHT22;62045;49.986;8.672;2022-07-22T01:04:49;29.30;42.80
27258;DHT22;62045;49.986;8.672;2022-07-22T01:09:50;29.20;42.70
27258;DHT22;62045;49.986;8.672;2022-07-22T01:14:51;29.20;42.70
27258;DHT22;62045;49.986;8.672;2022-07-22T01:20:02;29.20;42.70
27258;DHT22;62045;49.986;8.672;2022-07-22T01:25:04;29.20;42.70
27258;DHT22;62045;49.986;8.672;2022-07-22T01:30:06;29.20;42.70
27258;DHT22;62045;49.986;8.672;2022-07-22T01:35:08;29.20;42.70
27258;DHT22;62045;49.986;8.672;2022-07-22T01:40:10;29.20;42.70
27258;DHT22;62045;49.986;8.672;2022-07-22T01:45:12;29.20;42.70
27258;DHT22;62045;49.986;8.672;2022-07-22T01:50:14;29.20;42.70
27258;DHT22;62045;49.986;8.672;2022-07-22T01:55:15;29.20;43.30
27258;DHT22;62045;49.986;8.672;2022-07-22T02:00:16;29.20;42.70
27258;DHT22;62045;49.986;8.672;2022-07-22T02:05:19;29.20;42.70
27258;DHT22;62045;49.986;8.672;2022-07-22T02:10:20;29.20;42.70
27258;DHT22;62045;49.986;8.672;2022-07-22T02:15:21;29.10;42.60
27258;DHT22;62045;49.986;8.672;2022-07-22T02:20:24;29.10;42.60
27258;DHT22;62045;49.986;8.672;2022-07-22T02:25:26;29.00;42.60
27258;DHT22;62045;49.986;8.672;2022-07-22T02:30:27;29.00;42.60
27258;DHT22;62045;49.986;8.672;2022-07-22T02:35:29;29.00;42.60
27258;DHT22;62045;49.986;8.672;2022-07-22T02:40:30;29.00;42.60
27258;DHT22;62045;49.986;8.672;2022-07-22T02:45:31;28.90;42.60
27258;DHT22;62045;49.986;8.672;2022-07-22T02:50:33;28.90;42.60
27258;DHT22;62045;49.986;8.672;2022-07-22T02:55:35;28.90;42.70
27258;DHT22;62045;49.986;8.672;2022-07-22T03:00:38;28.90;42.70
27258;DHT22;62045;49.986;8.672;2022-07-22T03:05:40;28.80;42.70
27258;DHT22;62045;49.986;8.672;2022-07-22T03:10:51;28.80;42.70
27258;DHT22;62045;49.986;8.672;2022-07-22T03:15:54;28.80;42.80
27258;DHT22;62045;49.986;8.672;2022-07-22T03:20:57;28.80;42.70
27258;DHT22;62045;49.986;8.672;2022-07-22T03:25:58;28.70;42.70
27258;DHT22;62045;49.986;8.672;2022-07-22T03:30:59;28.70;42.70
27258;DHT22;62045;49.986;8.672;2022-07-22T03:36:02;28.70;42.80
27258;DHT22;62045;49.986;8.672;2022-07-22T03:41:03;28.70;42.80
27258;DHT22;62045;49.986;8.672;2022-07-22T03:46:05;28.70;42.80
27258;DHT22;62045;49.986;8.672;2022-07-22T03:51:08;28.70;42.80
27258;DHT22;62045;49.986;8.672;2022-07-22T03:56:09;28.70;42.80
27258;DHT22;62045;49.986;8.672;2022-07-22T04:01:10;28.70;42.80
27258;DHT22;62045;49.986;8.672;2022-07-22T04:06:16;28.70;42.80
27258;DHT22;62045;49.986;8.672;2022-07-22T04:11:23;28.70;42.80
27258;DHT22;62045;49.986;8.672;2022-07-22T04:16:24;28.70;42.80
27258;DHT22;62045;49.986;8.672;2022-07-22T04:21:34;28.70;42.80
27258;DHT22;62045;49.986;8.672;2022-07-22T04:26:40;28.70;42.80
27258;DHT22;62045;49.986;8.672;2022-07-22T04:31:41;28.70;42.80
27258;DHT22;62045;49.986;8.672;2022-07-22T04:36:48;28.70;42.80
27258;DHT22;62045;49.986;8.672;2022-07-22T04:41:50;28.70;42.80
27258;DHT22;62045;49.986;8.672;2022-07-22T04:46:52;28.60;42.70
27258;DHT22;62045;49.986;8.672;2022-07-22T04:51:55;28.60;43.40
27258;DHT22;62045;49.986;8.672;2022-07-22T04:57:13;28.60;42.70
27258;DHT22;62045;49.986;8.672;2022-07-22T05:02:14;28.60;42.80
27258;DHT22;62045;49.986;8.672;2022-07-22T05:07:18;28.60;42.80
27258;DHT22;62045;49.986;8.672;2022-07-22T05:12:19;28.50;42.90
27258;DHT22;62045;49.986;8.672;2022-07-22T05:17:20;28.50;43.10
27258;DHT22;62045;49.986;8.672;2022-07-22T05:22:42;28.50;43.20
27258;DHT22;62045;49.986;8.672;2022-07-22T05:27:53;28.50;43.20
27258;DHT22;62045;49.986;8.672;2022-07-22T05:33:16;28.50;43.20
27258;DHT22;62045;49.986;8.672;2022-07-22T05:38:39;28.40;43.20
27258;DHT22;62045;49.986;8.672;2022-07-22T05:43:41;28.40;43.30
27258;DHT22;62045;49.986;8.672;2022-07-22T05:48:43;28.40;43.40
27258;DHT22;62045;49.986;8.672;2022-07-22T05:53:47;28.40;43.40
27258;DHT22;62045;49.986;8.672;2022-07-22T05:58:48;28.30;43.30
27258;DHT22;62045;49.986;8.672;2022-07-22T06:03:49;28.30;43.30
27258;DHT22;62045;49.986;8.672;2022-07-22T06:08:51;28.30;43.30
27258;DHT22;62045;49.986;8.672;2022-07-22T06:13:52;28.30;43.40
27258;DHT22;62045;49.986;8.672;2022-07-22T06:18:53;28.30;43.40
27258;DHT22;62045;49.986;8.672;2022-07-22T06:23:56;28.30;43.40
27258;DHT22;62045;49.986;8.672;2022-07-22T06:28:57;28.30;43.40
27258;DHT22;62045;49.986;8.672;2022-07-22T06:33:57;28.30;43.40
27258;DHT22;62045;49.986;8.672;2022-07-22T06:39:08;28.30;43.40
27258;DHT22;62045;49.986;8.672;2022-07-22T06:44:41;28.30;43.30
27258;DHT22;62045;49.986;8.672;2022-07-22T06:49:53;28.40;43.40
27258;DHT22;62045;49.986;8.672;2022-07-22T06:54:55;28.40;43.40
27258;DHT22;62045;49.986;8.672;2022-07-22T07:00:02;28.30;43.30
27258;DHT22;62045;49.986;8.672;2022-07-22T07:05:05;28.40;43.30
27258;DHT22;62045;49.986;8.672;2022-07-22T07:10:08;28.40;43.30
27258;DHT22;62045;49.986;8.672;2022-07-22T07:15:16;28.40;43.20
27258;DHT22;62045;49.986;8.672;2022-07-22T07:20:18;28.40;43.20
27258;DHT22;62045;49.986;8.672;2022-07-22T07:25:21;28.40;43.20
27258;DHT22;62045;49.986;8.672;2022-07-22T07:30:22;28.40;43.20
27258;DHT22;62045;49.986;8.672;2022-07-22T07:35:23;28.40;43.20
27258;DHT22;62045;49.986;8.672;2022-07-22T07:40:25;28.40;43.10
27258;DHT22;62045;49.986;8.672;2022-07-22T07:45:27;28.40;43.10
27258;DHT22;62045;49.986;8.672;2022-07-22T07:50:28;28.40;43.10
27258;DHT22;62045;49.986;8.672;2022-07-22T07:55:31;28.40;43.10
27258;DHT22;62045;49.986;8.672;2022-07-22T08:00:32;28.40;43.10
27258;DHT22;62045;49.986;8.672;2022-07-22T08:05:34;28.40;43.10
27258;DHT22;62045;49.986;8.672;2022-07-22T08:10:38;28.30;43.00
27258;DHT22;62045;49.986;8.672;2022-07-22T08:15:55;28.30;43.10
27258;DHT22;62045;49.986;8.672;2022-07-22T08:20:57;28.20;43.00
27258;DHT22;62045;49.986;8.672;2022-07-22T08:26:19;28.20;43.10
27258;DHT22;62045;49.986;8.672;2022-07-22T08:31:21;28.20;43.10
27258;DHT22;62045;49.986;8.672;2022-07-22T08:36:23;28.20;43.10
27258;DHT22;62045;49.986;8.672;2022-07-22T08:41:26;28.20;43.10
27258;DHT22;62045;49.986;8.672;2022-07-22T08:46:27;28.20;43.10
27258;DHT22;62045;49.986;8.672;2022-07-22T08:51:46;28.20;43.10
27258;DHT22;62045;49.986;8.672;2022-07-22T08:56:54;28.20;43.10
27258;DHT22;62045;49.986;8.672;2022-07-22T09:02:02;28.20;43.10
27258;DHT22;62045;49.986;8.672;2022-07-22T09:07:04;28.10;43.10
27258;DHT22;62045;49.986;8.672;2022-07-22T09:12:07;28.10;43.10
27258;DHT22;62045;49.986;8.672;2022-07-22T09:17:24;28.20;43.20
27258;DHT22;62045;49.986;8.672;2022-07-22T09:22:45;28.20;43.10
27258;DHT22;62045;49.986;8.672;2022-07-22T09:28:08;28.20;43.10
27258;DHT22;62045;49.986;8.672;2022-07-22T09:33:36;28.20;43.10
27258;DHT22;62045;49.986;8.672;2022-07-22T09:38:55;28.20;43.10
27258;DHT22;62045;49.986;8.672;2022-07-22T09:43:57;28.20;43.10
27258;DHT22;62045;49.986;8.672;2022-07-22T09:49:01;28.20;43.00
27258;DHT22;62045;49.986;8.672;2022-07-22T09:54:11;28.30;43.00
27258;DHT22;62045;49.986;8.672;2022-07-22T09:59:14;28.30;43.00
27258;DHT22;62045;49.986;8.672;2022-07-22T10:04:20;28.30;43.00
27258;DHT22;62045;49.986;8.672;2022-07-22T10:09:21;28.30;43.00
27258;DHT22;62045;49.986;8.672;2022-07-22T10:14:25;28.30;43.00
27258;DHT22;62045;49.986;8.672;2022-07-22T10:19:32;28.30;43.00
27258;DHT22;62045;49.986;8.672;2022-07-22T10:24:33;28.30;42.90
27258;DHT22;62045;49.986;8.672;2022-07-22T10:29:42;28.30;42.90
27258;DHT22;62045;49.986;8.672;2022-07-22T10:34:43;28.30;42.90
27258;DHT22;62045;49.986;8.672;2022-07-22T10:45:19;28.40;42.90
27258;DHT22;62045;49.986;8.672;2022-07-22T10:50:42;28.30;42.80
27258;DHT22;62045;49.986;8.672;2022-07-22T10:56:18;28.40;42.90
27258;DHT22;62045;49.986;8.672;2022-07-22T11:01:23;28.40;42.90
27258;DHT22;62045;49.986;8.672;2022-07-22T11:06:27;28.40;42.90
27258;DHT22;62045;49.986;8.672;2022-07-22T11:11:34;28.30;42.80
27258;DHT22;62045;49.986;8.672;2022-07-22T11:16:37;28.30;42.80
27258;DHT22;62045;49.986;8.672;2022-07-22T11:21:38;28.30;42.90
27258;DHT22;62045;49.986;8.672;2022-07-22T11:26:43;28.20;42.80
27258;DHT22;62045;49.986;8.672;2022-07-22T11:31:46;28.20;42.80
27258;DHT22;62045;49.986;8.672;2022-07-22T11:36:47;28.20;42.90
27258;DHT22;62045;49.986;8.672;2022-07-22T11:41:48;28.20;42.90
27258;DHT22;62045;49.986;8.672;2022-07-22T11:46:51;28.20;43.00
27258;DHT22;62045;49.986;8.672;2022-07-22T11:51:52;28.10;43.10
27258;DHT22;62045;49.986;8.672;2022-07-22T11:56:53;28.10;43.10
27258;DHT22;62045;49.986;8.672;2022-07-22T12:01:56;28.10;43.10
27258;DHT22;62045;49.986;8.672;2022-07-22T12:06:58;28.10;43.20
27258;DHT22;62045;49.986;8.672;2022-07-22T12:12:00;28.10;43.20
27258;DHT22;62045;49.986;8.672;2022-07-22T12:17:04;28.10;43.30
27258;DHT22;62045;49.986;8.672;2022-07-22T12:22:08;28.10;43.30
27258;DHT22;62045;49.986;8.672;2022-07-22T12:27:10;28.20;43.30
27258;DHT22;62045;49.986;8.672;2022-07-22T12:32:16;28.20;43.30
27258;DHT22;62045;49.986;8.672;2022-07-22T12:37:19;28.20;43.30
27258;DHT22;62045;49.986;8.672;2022-07-22T12:42:20;28.20;43.30
27258;DHT22;62045;49.986;8.672;2022-07-22T12:47:46;28.30;43.20
27258;DHT22;62045;49.986;8.672;2022-07-22T12:52:47;28.30;43.30
27258;DHT22;62045;49.986;8.672;2022-07-22T12:57:48;28.30;43.20
27258;DHT22;62045;49.986;8.672;2022-07-22T13:02:51;28.40;43.20
27258;DHT22;62045;49.986;8.672;2022-07-22T13:07:52;28.40;43.20
27258;DHT22;62045;49.986;8.672;2022-07-22T13:12:53;28.40;43.20
27258;DHT22;62045;49.986;8.672;2022-07-22T13:17:56;28.40;43.20
27258;DHT22;62045;49.986;8.672;2022-07-22T13:22:57;28.40;43.20
27258;DHT22;62045;49.986;8.672;2022-07-22T13:27:58;28.40;43.10
27258;DHT22;62045;49.986;8.672;2022-07-22T13:33:00;28.40;43.10
27258;DHT22;62045;49.986;8.672;2022-07-22T13:38:01;28.50;43.10
27258;DHT22;62045;49.986;8.672;2022-07-22T13:43:02;28.50;43.10
27258;DHT22;62045;49.986;8.672;2022-07-22T13:48:04;28.50;43.20
27258;DHT22;62045;49.986;8.672;2022-07-22T13:53:05;28.50;43.20
27258;DHT22;62045;49.986;8.672;2022-07-22T13:58:07;28.50;43.10
27258;DHT22;62045;49.986;8.672;2022-07-22T14:03:09;28.50;43.10
27258;DHT22;62045;49.986;8.672;2022-07-22T14:08:10;28.60;43.10
27258;DHT22;62045;49.986;8.672;2022-07-22T14:13:11;28.60;43.20
27258;DHT22;62045;49.986;8.672;2022-07-22T14:18:13;28.50;43.20
27258;DHT22;62045;49.986;8.672;2022-07-22T14:23:14;28.60;43.90
27258;DHT22;62045;49.986;8.672;2022-07-22T14:28:14;28.60;43.20
27258;DHT22;62045;49.986;8.672;2022-07-22T14:33:17;28.60;43.20
27258;DHT22;62045;49.986;8.672;2022-07-22T14:38:17;28.60;43.20
27258;DHT22;62045;49.986;8.672;2022-07-22T14:43:18;28.60;43.10
27258;DHT22;62045;49.986;8.672;2022-07-22T14:48:21;28.60;43.10
27258;DHT22;62045;49.986;8.672;2022-07-22T14:53:22;28.70;43.10
27258;DHT22;62045;49.986;8.672;2022-07-22T14:58:22;28.70;43.10
27258;DHT22;62045;49.986;8.672;2022-07-22T15:03:25;28.70;42.90
27258;DHT22;62045;49.986;8.672;2022-07-22T15:08:26;28.80;43.00
27258;DHT22;62045;49.986;8.672;2022-07-22T15:13:26;28.80;42.90
27258;DHT22;62045;49.986;8.672;2022-07-22T15:18:29;28.80;43.00
27258;DHT22;62045;49.986;8.672;2022-07-22T15:23:30;28.80;43.10
27258;DHT22;62045;49.986;8.672;2022-07-22T15:28:31;28.80;43.00
27258;DHT22;62045;49.986;8.672;2022-07-22T15:33:33;28.80;43.10
27258;DHT22;62045;49.986;8.672;2022-07-22T15:38:34;28.80;42.90
27258;DHT22;62045;49.986;8.672;2022-07-22T15:43:35;28.80;42.90
27258;DHT22;62045;49.986;8.672;2022-07-22T15:48:37;28.90;42.90
27258;DHT22;62045;49.986;8.672;2022-07-22T15:53:39;28.90;42.90
27258;DHT22;62045;49.986;8.672;2022-07-22T15:58:40;28.90;42.80
27258;DHT22;62045;49.986;8.672;2022-07-22T16:03:42;28.90;42.80
27258;DHT22;62045;49.986;8.672;2022-07-22T16:08:43;28.90;42.80
27258;DHT22;62045;49.986;8.672;2022-07-22T16:13:44;28.90;42.80
27258;DHT22;62045;49.986;8.672;2022-07-22T16:18:46;28.90;42.80
27258;DHT22;62045;49.986;8.672;2022-07-22T16:23:47;28.80;42.70
27258;DHT22;62045;49.986;8.672;2022-07-22T16:28:48;28.80;42.80
27258;DHT22;62045;49.986;8.672;2022-07-22T16:33:51;28.80;42.80
27258;DHT22;62045;49.986;8.672;2022-07-22T16:38:51;28.80;42.90
27258;DHT22;62045;49.986;8.672;2022-07-22T16:43:52;28.80;42.90
27258;DHT22;62045;49.986;8.672;2022-07-22T16:48:55;28.80;42.90
27258;DHT22;62045;49.986;8.672;2022-07-22T16:53:56;28.80;42.90
27258;DHT22;62045;49.986;8.672;2022-07-22T16:58:57;28.80;43.00
27258;DHT22;62045;49.986;8.672;2022-07-22T17:03:59;28.80;43.20
27258;DHT22;62045;49.986;8.672;2022-07-22T17:09:00;28.80;43.30
27258;DHT22;62045;49.986;8.672;2022-07-22T17:14:01;28.80;43.40
27258;DHT22;62045;49.986;8.672;2022-07-22T17:19:03;28.80;43.40
27258;DHT22;62045;49.986;8.672;2022-07-22T17:24:04;28.90;43.60
27258;DHT22;62045;49.986;8.672;2022-07-22T17:29:05;28.90;43.50
27258;DHT22;62045;49.986;8.672;2022-07-22T17:34:08;28.90;43.40
27258;DHT22;62045;49.986;8.672;2022-07-22T17:39:09;29.00;43.50
27258;DHT22;62045;49.986;8.672;2022-07-22T17:44:10;29.00;43.40
27258;DHT22;62045;49.986;8.672;2022-07-22T17:49:12;29.00;43.40
27258;DHT22;62045;49.986;8.672;2022-07-22T17:54:13;29.00;43.30
27258;DHT22;62045;49.986;8.672;2022-07-22T17:59:13;29.10;43.40
27258;DHT22;62045;49.986;8.672;2022-07-22T18:04:16;29.20;43.40
27258;DHT22;62045;49.986;8.672;2022-07-22T18:09:17;29.10;43.30
27258;DHT22;62045;49.986;8.672;2022-07-22T18:14:17;29.10;43.30
27258;DHT22;62045;49.986;8.672;2022-07-22T18:19:20;29.20;43.40
27258;DHT22;62045;49.986;8.672;2022-07-22T18:24:20;29.20;43.30
27258;DHT22;62045;49.986;8.672;2022-07-22T18:29:21;29.20;43.30
27258;DHT22;62045;49.986;8.672;2022-07-22T18:34:23;29.20;43.30
27258;DHT22;62045;49.986;8.672;2022-07-22T18:39:24;29.20;43.30
27258;DHT22;62045;49.986;8.672;2022-07-22T18:44:25;29.20;43.30
27258;DHT22;62045;49.986;8.672;2022-07-22T18:49:27;29.20;44.20
27258;DHT22;62045;49.986;8.672;2022-07-22T18:54:28;29.20;47.30
27258;DHT22;62045;49.986;8.672;2022-07-22T18:59:29;29.20;46.50
27258;DHT22;62045;49.986;8.672;2022-07-22T19:04:31;29.20;46.00
27258;DHT22;62045;49.986;8.672;2022-07-22T19:09:32;29.20;45.70
27258;DHT22;62045;49.986;8.672;2022-07-22T19:14:33;29.20;45.50
27258;DHT22;62045;49.986;8.672;2022-07-22T19:19:35;29.30;45.50
27258;DHT22;62045;49.986;8.672;2022-07-22T19:24:36;29.30;45.30
27258;DHT22;62045;49.986;8.672;2022-07-22T19:29:37;29.30;45.20
27258;DHT22;62045;49.986;8.672;2022-07-22T19:34:39;29.30;45.10
27258;DHT22;62045;49.986;8.672;2022-07-22T19:39:40;29.30;45.10
27258;DHT22;62045;49.986;8.672;2022-07-22T19:44:41;29.20;45.00
27258;DHT22;62045;49.986;8.672;2022-07-22T19:49:44;29.20;44.90
27258;DHT22;62045;49.986;8.672;2022-07-22T19:54:44;29.20;44.90
27258;DHT22;62045;49.986;8.672;2022-07-22T19:59:46;29.20;44.90
27258;DHT22;62045;49.986;8.672;2022-07-22T20:04:48;29.20;44.80
27258;DHT22;62045;49.986;8.672;2022-07-22T20:09:49;29.20;44.80
27258;DHT22;62045;49.986;8.672;2022-07-22T20:14:50;29.10;44.80
27258;DHT22;62045;49.986;8.672;2022-07-22T20:19:52;29.10;44.70
27258;DHT22;62045;49.986;8.672;2022-07-22T20:24:53;29.10;44.70
27258;DHT22;62045;49.986;8.672;2022-07-22T20:29:54;29.10;44.70
27258;DHT22;62045;49.986;8.672;2022-07-22T20:34:56;29.00;44.50
27258;DHT22;62045;49.986;8.672;2022-07-22T20:39:57;29.00;44.50
27258;DHT22;62045;49.986;8.672;2022-07-22T20:44:58;29.10;44.60
27258;DHT22;62045;49.986;8.672;2022-07-22T20:50:00;29.00;44.50
27258;DHT22;62045;49.986;8.672;2022-07-22T20:55:01;29.10;44.60
27258;DHT22;62045;49.986;8.672;2022-07-22T21:00:02;29.10;44.60
27258;DHT22;62045;49.986;8.672;2022-07-22T21:05:05;29.10;44.50
27258;DHT22;62045;49.986;8.672;2022-07-22T21:10:07;29.20;44.50
27258;DHT22;62045;49.986;8.672;2022-07-22T21:15:08;29.20;44.50
27258;DHT22;62045;49.986;8.672;2022-07-22T21:20:11;29.20;44.40
27258;DHT22;62045;49.986;8.672;2022-07-22T21:25:12;29.20;44.40
27258;DHT22;62045;49.986;8.672;2022-07-22T21:30:13;29.20;44.40
27258;DHT22;62045;49.986;8.672;2022-07-22T21:35:16;29.20;44.30
27258;DHT22;62045;49.986;8.672;2022-07-22T21:40:17;29.20;44.30
27258;DHT22;62045;49.986;8.672;2022-07-22T21:45:18;29.20;44.30
27258;DHT22;62045;49.986;8.672;2022-07-22T21:50:20;29.20;44.20
27258;DHT22;62045;49.986;8.672;2022-07-22T21:55:21;29.20;44.20
27258;DHT22;62045;49.986;8.672;2022-07-22T22:00:22;29.20;44.20
27258;DHT22;62045;49.986;8.672;2022-07-22T22:05:24;29.20;44.20
27258;DHT22;62045;49.986;8.672;2022-07-22T22:10:25;29.20;44.20
27258;DHT22;62045;49.986;8.672;2022-07-22T22:15:26;29.20;44.20
27258;DHT22;62045;49.986;8.672;2022-07-22T22:20:28;29.20;44.10
27258;DHT22;62045;49.986;8.672;2022-07-22T22:25:29;29.20;44.10
27258;DHT22;62045;49.986;8.672;2022-07-22T22:30:30;29.20;44.10
27258;DHT22;62045;49.986;8.672;2022-07-22T22:35:32;29.20;44.10
27258;DHT22;62045;49.986;8.672;2022-07-22T22:40:33;29.10;44.00
27258;DHT22;62045;49.986;8.672;2022-07-22T22:45:34;29.10;44.10
27258;DHT22;62045;49.986;8.672;2022-07-22T22:50:36;29.10;44.10
27258;DHT22;62045;49.986;8.672;2022-07-22T22:55:37;29.10;44.10
27258;DHT22;62045;49.986;8.672;2022-07-22T23:00:38;29.00;44.00
27258;DHT22;62045;49.986;8.672;2022-07-22T23:05:40;29.00;44.00
27258;DHT22;62045;49.986;8.672;2022-07-22T23:10:41;29.00;44.00
27258;DHT22;62045;49.986;8.672;2022-07-22T23:15:42;29.00;44.00
27258;DHT22;62045;49.986;8.672;2022-07-22T23:20:44;29.00;44.00
27258;DHT22;62045;49.986;8.672;2022-07-22T23:25:45;29.00;44.10
27258;DHT22;62045;49.986;8.672;2022-07-22T23:30:46;29.00;44.10
27258;DHT22;62045;49.986;8.672;2022-07-22T23:35:49;28.90;44.10
27258;DHT22;62045;49.986;8.672;2022-07-22T23:40:50;28.90;44.10
27258;DHT22;62045;49.986;8.672;2022-07-22T23:45:50;28.90;44.10
27258;DHT22;62045;49.986;8.672;2022-07-22T23:50:53;29.00;44.10
27258;DHT22;62045;49.986;8.672;2022-07-22T23:55:53;29.00;44.10
